PIK weather

Glasgow Prestwick Airport
Glasgow, Scotland, United Kingdom

Public forecast

Using degrees Celsius for public forecast. Weather courtesy of forecast.io.

METAR (pilot weather report)

Retrieved 2019/02/19 11:20 UTC (1 minute ago):

EGPK 191120Z 22007KT 9999 FEW016 SCT035 07/05 Q1012

TAF (pilot weather forecast)

Retrieved 2019/02/19 06:00 UTC (5 hours ago):

TAF EGPK 190504Z 1906/2006 25012KT 9999 FEW018 SCT030 PROB30 TEMPO 1906/1909 26015G25KT 6000 SHRA BKN012 BECMG 1912/1915 19012KT PROB30 TEMPO 1912/1916 8000 -RA TEMPO 1916/2006 6000 RA BKN012 PROB40 TEMPO 1921/2002 20015G25KT 4000 +RA BKN008